<?xml version="1.0" encoding="UTF-8"?>
<gpx xmlns="http://www.topografix.com/GPX/1/1" xmlns:gpsies="http://www.gpsies.com/GPX/1/0" creator="GPSies http://www.gpsies.com - &amp;#1051;&amp;#1086;&amp;#1084;&amp;#1086;&amp;#1074;&amp;#1086;&amp;#1081;200" version="1.1" xmlns:xsi="http://www.w3.org/2001/XMLSchema-instance" xsi:schemaLocation="http://www.topografix.com/GPX/1/1 http://www.topografix.com/GPX/1/1/gpx.xsd http://www.gpsies.com/GPX/1/0 http://www.gpsies.com/gpsies.xsd">
  <metadata>
    <name>Ломовой200</name>
    <author>
      <name>U_N_E</name>
      <link href="http://www.gpsies.com/mapUser.do?username=U_N_E">
        <text>U_N_E on GPSies.com</text>
        <type>GPSiesUserOnWeb</type>
      </link>
    </author>
    <link href="http://www.gpsies.com/map.do?fileId=qzcaonuoomeemqst">
      <text>Ломовой200 on GPSies.com</text>
      <type>trackOnWeb</type>
    </link>
    <time>2016-08-07T22:31:14Z</time>
    <extensions>
      <gpsies:property>one-way trip</gpsies:property>
      <gpsies:trackLengthMeter>199574.05806666793</gpsies:trackLengthMeter>
      <gpsies:totalAscentMeter>1474.0</gpsies:totalAscentMeter>
      <gpsies:totalDescentMeter>1485.0</gpsies:totalDescentMeter>
      <gpsies:minHeightMeter>93.0</gpsies:minHeightMeter>
      <gpsies:maxHeightMeter>251.0</gpsies:maxHeightMeter>
    </extensions>
  </metadata>
  <trk>
    <name>Ломовой200 on GPSies.com</name>
    <link href="http://www.gpsies.com/map.do?fileId=qzcaonuoomeemqst">
      <type>trackOnWeb</type>
    </link>
    <link href="http://www.gpsies.com/charts/qz/map/qzcaonuoomeemqst_map.png">
      <type>elevationChartUrlMap</type>
    </link>
    <link href="http://www.gpsies.com/charts/qz/mapThumb/qzcaonuoomeemqst_mapThumb.png">
      <type>elevationChartUrlMapThumb</type>
    </link>
    <link href="http://www.gpsies.com/charts/qz/tab/qzcaonuoomeemqst_tab.png">
      <type>elevationChartUrlTab</type>
    </link>
    <trkseg>
      <trkpt lat="51.78483380" lon="39.19612880">
        <ele>169.00000</ele>
        <time>2010-01-01T00:00:00Z</time>
      </trkpt>
      <trkpt lat="51.78493340" lon="39.18102260">
        <ele>174.00000</ele>
        <time>2010-01-01T00:06:14Z</time>
      </trkpt>
      <trkpt lat="51.78501970" lon="39.17959570">
        <ele>175.00000</ele>
        <time>2010-01-01T00:06:49Z</time>
      </trkpt>
      <trkpt lat="51.78570990" lon="39.17611950">
        <ele>177.00000</ele>
        <time>2010-01-01T00:08:20Z</time>
      </trkpt>
      <trkpt lat="51.78689130" lon="39.17054050">
        <ele>175.00000</ele>
        <time>2010-01-01T00:10:46Z</time>
      </trkpt>
      <trkpt lat="51.78789340" lon="39.16573400">
        <ele>174.00000</ele>
        <time>2010-01-01T00:12:51Z</time>
      </trkpt>
      <trkpt lat="51.78837790" lon="39.16290160">
        <ele>168.00000</ele>
        <time>2010-01-01T00:14:04Z</time>
      </trkpt>
      <trkpt lat="51.78953930" lon="39.15591710">
        <ele>158.00000</ele>
        <time>2010-01-01T00:17:03Z</time>
      </trkpt>
      <trkpt lat="51.78993740" lon="39.15385720">
        <ele>154.00000</ele>
        <time>2010-01-01T00:17:56Z</time>
      </trkpt>
      <trkpt lat="51.79005690" lon="39.15223710">
        <ele>153.00000</ele>
        <time>2010-01-01T00:18:37Z</time>
      </trkpt>
      <trkpt lat="51.79011660" lon="39.14856790">
        <ele>147.00000</ele>
        <time>2010-01-01T00:20:08Z</time>
      </trkpt>
      <trkpt lat="51.79014980" lon="39.14601440">
        <ele>144.00000</ele>
        <time>2010-01-01T00:21:11Z</time>
      </trkpt>
      <trkpt lat="51.79092620" lon="39.14602510">
        <ele>142.00000</ele>
        <time>2010-01-01T00:21:42Z</time>
      </trkpt>
      <trkpt lat="51.79132440" lon="39.14611100">
        <ele>142.00000</ele>
        <time>2010-01-01T00:21:58Z</time>
      </trkpt>
      <trkpt lat="51.79264500" lon="39.14716240">
        <ele>143.00000</ele>
        <time>2010-01-01T00:22:57Z</time>
      </trkpt>
      <trkpt lat="51.79458920" lon="39.14741990">
        <ele>144.00000</ele>
        <time>2010-01-01T00:24:15Z</time>
      </trkpt>
      <trkpt lat="51.79624150" lon="39.14743060">
        <ele>144.00000</ele>
        <time>2010-01-01T00:25:21Z</time>
      </trkpt>
      <trkpt lat="51.79772780" lon="39.14532780">
        <ele>140.00000</ele>
        <time>2010-01-01T00:26:40Z</time>
      </trkpt>
      <trkpt lat="51.79810600" lon="39.14500590">
        <ele>138.00000</ele>
        <time>2010-01-01T00:26:57Z</time>
      </trkpt>
      <trkpt lat="51.79972490" lon="39.14401880">
        <ele>133.00000</ele>
        <time>2010-01-01T00:28:07Z</time>
      </trkpt>
      <trkpt lat="51.80121770" lon="39.14306400">
        <ele>130.00000</ele>
        <time>2010-01-01T00:29:11Z</time>
      </trkpt>
      <trkpt lat="51.80194750" lon="39.14274210">
        <ele>129.00000</ele>
        <time>2010-01-01T00:29:41Z</time>
      </trkpt>
      <trkpt lat="51.80243180" lon="39.14291380">
        <ele>128.00000</ele>
        <time>2010-01-01T00:30:01Z</time>
      </trkpt>
      <trkpt lat="51.80300240" lon="39.14326780">
        <ele>128.00000</ele>
        <time>2010-01-01T00:30:26Z</time>
      </trkpt>
      <trkpt lat="51.80327440" lon="39.14325710">
        <ele>128.00000</ele>
        <time>2010-01-01T00:30:36Z</time>
      </trkpt>
      <trkpt lat="51.80383830" lon="39.14272060">
        <ele>130.00000</ele>
        <time>2010-01-01T00:31:03Z</time>
      </trkpt>
      <trkpt lat="51.80474060" lon="39.14154050">
        <ele>127.00000</ele>
        <time>2010-01-01T00:31:49Z</time>
      </trkpt>
      <trkpt lat="51.80536420" lon="39.14082160">
        <ele>122.00000</ele>
        <time>2010-01-01T00:32:20Z</time>
      </trkpt>
      <trkpt lat="51.80590810" lon="39.14060710">
        <ele>117.00000</ele>
        <time>2010-01-01T00:32:42Z</time>
      </trkpt>
      <trkpt lat="51.80730120" lon="39.14014570">
        <ele>116.00000</ele>
        <time>2010-01-01T00:33:39Z</time>
      </trkpt>
      <trkpt lat="51.80819680" lon="39.13980240">
        <ele>118.00000</ele>
        <time>2010-01-01T00:34:16Z</time>
      </trkpt>
      <trkpt lat="51.80890660" lon="39.13944840">
        <ele>121.00000</ele>
        <time>2010-01-01T00:34:46Z</time>
      </trkpt>
      <trkpt lat="51.80936430" lon="39.13953420">
        <ele>122.00000</ele>
        <time>2010-01-01T00:35:04Z</time>
      </trkpt>
      <trkpt lat="51.80969600" lon="39.13971660">
        <ele>123.00000</ele>
        <time>2010-01-01T00:35:18Z</time>
      </trkpt>
      <trkpt lat="51.81012050" lon="39.13964150">
        <ele>123.00000</ele>
        <time>2010-01-01T00:35:35Z</time>
      </trkpt>
      <trkpt lat="51.81036590" lon="39.13949130">
        <ele>125.00000</ele>
        <time>2010-01-01T00:35:46Z</time>
      </trkpt>
      <trkpt lat="51.81079710" lon="39.13969510">
        <ele>125.00000</ele>
        <time>2010-01-01T00:36:04Z</time>
      </trkpt>
      <trkpt lat="51.81329110" lon="39.14034960">
        <ele>120.00000</ele>
        <time>2010-01-01T00:37:45Z</time>
      </trkpt>
      <trkpt lat="51.81636200" lon="39.14118640">
        <ele>116.00000</ele>
        <time>2010-01-01T00:39:49Z</time>
      </trkpt>
      <trkpt lat="51.81839810" lon="39.14187310">
        <ele>115.00000</ele>
        <time>2010-01-01T00:41:13Z</time>
      </trkpt>
      <trkpt lat="51.82024840" lon="39.14260260">
        <ele>111.00000</ele>
        <time>2010-01-01T00:42:29Z</time>
      </trkpt>
      <trkpt lat="51.82076570" lon="39.14272060">
        <ele>112.00000</ele>
        <time>2010-01-01T00:42:50Z</time>
      </trkpt>
      <trkpt lat="51.82238380" lon="39.14245240">
        <ele>110.00000</ele>
        <time>2010-01-01T00:43:55Z</time>
      </trkpt>
      <trkpt lat="51.82295410" lon="39.14253830">
        <ele>104.00000</ele>
        <time>2010-01-01T00:44:18Z</time>
      </trkpt>
      <trkpt lat="51.82377640" lon="39.14305320">
        <ele>102.00000</ele>
        <time>2010-01-01T00:44:53Z</time>
      </trkpt>
      <trkpt lat="51.82449260" lon="39.14371840">
        <ele>104.00000</ele>
        <time>2010-01-01T00:45:26Z</time>
      </trkpt>
      <trkpt lat="51.82504300" lon="39.14412610">
        <ele>107.00000</ele>
        <time>2010-01-01T00:45:51Z</time>
      </trkpt>
      <trkpt lat="51.82550050" lon="39.14508100">
        <ele>106.00000</ele>
        <time>2010-01-01T00:46:20Z</time>
      </trkpt>
      <trkpt lat="51.82563980" lon="39.14524190">
        <ele>107.00000</ele>
        <time>2010-01-01T00:46:27Z</time>
      </trkpt>
      <trkpt lat="51.82604430" lon="39.14527410">
        <ele>106.00000</ele>
        <time>2010-01-01T00:46:43Z</time>
      </trkpt>
      <trkpt lat="51.82689300" lon="39.14492010">
        <ele>107.00000</ele>
        <time>2010-01-01T00:47:19Z</time>
      </trkpt>
      <trkpt lat="51.82766880" lon="39.14436220">
        <ele>105.00000</ele>
        <time>2010-01-01T00:47:53Z</time>
      </trkpt>
      <trkpt lat="51.82839160" lon="39.14421200">
        <ele>108.00000</ele>
        <time>2010-01-01T00:48:22Z</time>
      </trkpt>
      <trkpt lat="51.82957840" lon="39.14313910">
        <ele>105.00000</ele>
        <time>2010-01-01T00:49:16Z</time>
      </trkpt>
      <trkpt lat="51.83100400" lon="39.14265630">
        <ele>102.00000</ele>
        <time>2010-01-01T00:50:14Z</time>
      </trkpt>
      <trkpt lat="51.83146140" lon="39.14323560">
        <ele>103.00000</ele>
        <time>2010-01-01T00:50:38Z</time>
      </trkpt>
      <trkpt lat="51.83166030" lon="39.14376130">
        <ele>105.00000</ele>
        <time>2010-01-01T00:50:53Z</time>
      </trkpt>
      <trkpt lat="51.83207140" lon="39.14427630">
        <ele>104.00000</ele>
        <time>2010-01-01T00:51:14Z</time>
      </trkpt>
      <trkpt lat="51.83417310" lon="39.14357900">
        <ele>102.00000</ele>
        <time>2010-01-01T00:52:40Z</time>
      </trkpt>
      <trkpt lat="51.83469680" lon="39.14339660">
        <ele>102.00000</ele>
        <time>2010-01-01T00:53:01Z</time>
      </trkpt>
      <trkpt lat="51.83718950" lon="39.14377210">
        <ele>107.00000</ele>
        <time>2010-01-01T00:54:41Z</time>
      </trkpt>
      <trkpt lat="51.83847560" lon="39.14355750">
        <ele>107.00000</ele>
        <time>2010-01-01T00:55:33Z</time>
      </trkpt>
      <trkpt lat="51.83939040" lon="39.14327850">
        <ele>107.00000</ele>
        <time>2010-01-01T00:56:10Z</time>
      </trkpt>
      <trkpt lat="51.84055710" lon="39.14367550">
        <ele>109.00000</ele>
        <time>2010-01-01T00:56:58Z</time>
      </trkpt>
      <trkpt lat="51.84192260" lon="39.14441580">
        <ele>111.00000</ele>
        <time>2010-01-01T00:57:56Z</time>
      </trkpt>
      <trkpt lat="51.84438180" lon="39.14547800">
        <ele>110.00000</ele>
        <time>2010-01-01T00:59:38Z</time>
      </trkpt>
      <trkpt lat="51.84556820" lon="39.14610020">
        <ele>106.00000</ele>
        <time>2010-01-01T01:00:27Z</time>
      </trkpt>
      <trkpt lat="51.84660220" lon="39.14663670">
        <ele>105.00000</ele>
        <time>2010-01-01T01:01:11Z</time>
      </trkpt>
      <trkpt lat="51.84866340" lon="39.14768810">
        <ele>102.00000</ele>
        <time>2010-01-01T01:02:37Z</time>
      </trkpt>
      <trkpt lat="51.84943220" lon="39.14808510">
        <ele>100.00000</ele>
        <time>2010-01-01T01:03:10Z</time>
      </trkpt>
      <trkpt lat="51.85099630" lon="39.14937250">
        <ele>99.000000</ele>
        <time>2010-01-01T01:04:20Z</time>
      </trkpt>
      <trkpt lat="51.85260010" lon="39.15040250">
        <ele>99.000000</ele>
        <time>2010-01-01T01:05:29Z</time>
      </trkpt>
      <trkpt lat="51.85384600" lon="39.15081020">
        <ele>96.000000</ele>
        <time>2010-01-01T01:06:20Z</time>
      </trkpt>
      <trkpt lat="51.85388570" lon="39.15119640">
        <ele>98.000000</ele>
        <time>2010-01-01T01:06:30Z</time>
      </trkpt>
      <trkpt lat="51.85309050" lon="39.15344950">
        <ele>100.00000</ele>
        <time>2010-01-01T01:07:34Z</time>
      </trkpt>
      <trkpt lat="51.85252060" lon="39.15505880">
        <ele>101.00000</ele>
        <time>2010-01-01T01:08:20Z</time>
      </trkpt>
      <trkpt lat="51.85250730" lon="39.15533780">
        <ele>103.00000</ele>
        <time>2010-01-01T01:08:27Z</time>
      </trkpt>
      <trkpt lat="51.85411100" lon="39.15744060">
        <ele>109.00000</ele>
        <time>2010-01-01T01:09:49Z</time>
      </trkpt>
      <trkpt lat="51.85719900" lon="39.16173210">
        <ele>114.00000</ele>
        <time>2010-01-01T01:12:32Z</time>
      </trkpt>
      <trkpt lat="51.85798090" lon="39.16271920">
        <ele>115.00000</ele>
        <time>2010-01-01T01:13:12Z</time>
      </trkpt>
      <trkpt lat="51.86273830" lon="39.16759010">
        <ele>115.00000</ele>
        <time>2010-01-01T01:16:57Z</time>
      </trkpt>
      <trkpt lat="51.86460670" lon="39.16960710">
        <ele>114.00000</ele>
        <time>2010-01-01T01:18:27Z</time>
      </trkpt>
      <trkpt lat="51.86566680" lon="39.17076580">
        <ele>110.00000</ele>
        <time>2010-01-01T01:19:18Z</time>
      </trkpt>
      <trkpt lat="51.86652800" lon="39.17091600">
        <ele>109.00000</ele>
        <time>2010-01-01T01:19:53Z</time>
      </trkpt>
      <trkpt lat="51.86813120" lon="39.17168850">
        <ele>102.00000</ele>
        <time>2010-01-01T01:21:00Z</time>
      </trkpt>
      <trkpt lat="51.87156270" lon="39.17291160">
        <ele>106.00000</ele>
        <time>2010-01-01T01:23:20Z</time>
      </trkpt>
      <trkpt lat="51.87466280" lon="39.17312620">
        <ele>111.00000</ele>
        <time>2010-01-01T01:25:25Z</time>
      </trkpt>
      <trkpt lat="51.87768310" lon="39.17312620">
        <ele>115.00000</ele>
        <time>2010-01-01T01:27:26Z</time>
      </trkpt>
      <trkpt lat="51.88031920" lon="39.17301890">
        <ele>117.00000</ele>
        <time>2010-01-01T01:29:11Z</time>
      </trkpt>
      <trkpt lat="51.88398810" lon="39.17265410">
        <ele>110.00000</ele>
        <time>2010-01-01T01:31:38Z</time>
      </trkpt>
      <trkpt lat="51.88584240" lon="39.17254680">
        <ele>111.00000</ele>
        <time>2010-01-01T01:32:53Z</time>
      </trkpt>
      <trkpt lat="51.88804090" lon="39.17316910">
        <ele>117.00000</ele>
        <time>2010-01-01T01:34:22Z</time>
      </trkpt>
      <trkpt lat="51.88806740" lon="39.17432780">
        <ele>118.00000</ele>
        <time>2010-01-01T01:34:51Z</time>
      </trkpt>
      <trkpt lat="51.88809390" lon="39.17578690">
        <ele>119.00000</ele>
        <time>2010-01-01T01:35:27Z</time>
      </trkpt>
      <trkpt lat="51.88834550" lon="39.17608730">
        <ele>118.00000</ele>
        <time>2010-01-01T01:35:39Z</time>
      </trkpt>
      <trkpt lat="51.88884870" lon="39.17632340">
        <ele>118.00000</ele>
        <time>2010-01-01T01:36:00Z</time>
      </trkpt>
      <trkpt lat="51.89046440" lon="39.17698860">
        <ele>123.00000</ele>
        <time>2010-01-01T01:37:07Z</time>
      </trkpt>
      <trkpt lat="51.89083520" lon="39.17765370">
        <ele>124.00000</ele>
        <time>2010-01-01T01:37:29Z</time>
      </trkpt>
      <trkpt lat="51.89088820" lon="39.17844770">
        <ele>126.00000</ele>
        <time>2010-01-01T01:37:49Z</time>
      </trkpt>
      <trkpt lat="51.89080870" lon="39.18022870">
        <ele>132.00000</ele>
        <time>2010-01-01T01:38:33Z</time>
      </trkpt>
      <trkpt lat="51.89075580" lon="39.18091530">
        <ele>130.00000</ele>
        <time>2010-01-01T01:38:50Z</time>
      </trkpt>
      <trkpt lat="51.89071600" lon="39.18147320">
        <ele>130.00000</ele>
        <time>2010-01-01T01:39:04Z</time>
      </trkpt>
      <trkpt lat="51.89078220" lon="39.18175220">
        <ele>129.00000</ele>
        <time>2010-01-01T01:39:11Z</time>
      </trkpt>
      <trkpt lat="51.89111330" lon="39.18196670">
        <ele>129.00000</ele>
        <time>2010-01-01T01:39:25Z</time>
      </trkpt>
      <trkpt lat="51.89141790" lon="39.18136590">
        <ele>127.00000</ele>
        <time>2010-01-01T01:39:45Z</time>
      </trkpt>
      <trkpt lat="51.89222570" lon="39.17945620">
        <ele>124.00000</ele>
        <time>2010-01-01T01:40:42Z</time>
      </trkpt>
      <trkpt lat="51.89271570" lon="39.17649500">
        <ele>120.00000</ele>
        <time>2010-01-01T01:41:58Z</time>
      </trkpt>
      <trkpt lat="51.89291430" lon="39.17475700">
        <ele>116.00000</ele>
        <time>2010-01-01T01:42:41Z</time>
      </trkpt>
      <trkpt lat="51.89388100" lon="39.16896340">
        <ele>107.00000</ele>
        <time>2010-01-01T01:45:10Z</time>
      </trkpt>
      <trkpt lat="51.89504630" lon="39.16353460">
        <ele>100.00000</ele>
        <time>2010-01-01T01:47:31Z</time>
      </trkpt>
      <trkpt lat="51.89633070" lon="39.15756940">
        <ele>99.000000</ele>
        <time>2010-01-01T01:50:08Z</time>
      </trkpt>
      <trkpt lat="51.89729730" lon="39.15158270">
        <ele>99.000000</ele>
        <time>2010-01-01T01:52:40Z</time>
      </trkpt>
      <trkpt lat="51.89814470" lon="39.14611100">
        <ele>101.00000</ele>
        <time>2010-01-01T01:55:00Z</time>
      </trkpt>
      <trkpt lat="51.89844920" lon="39.14471620">
        <ele>103.00000</ele>
        <time>2010-01-01T01:55:36Z</time>
      </trkpt>
      <trkpt lat="51.89982620" lon="39.14124010">
        <ele>106.00000</ele>
        <time>2010-01-01T01:57:18Z</time>
      </trkpt>
      <trkpt lat="51.90280520" lon="39.13508170">
        <ele>121.00000</ele>
        <time>2010-01-01T02:00:32Z</time>
      </trkpt>
      <trkpt lat="51.90578390" lon="39.12896630">
        <ele>145.00000</ele>
        <time>2010-01-01T02:03:44Z</time>
      </trkpt>
      <trkpt lat="51.90900070" lon="39.12171360">
        <ele>162.00000</ele>
        <time>2010-01-01T02:07:25Z</time>
      </trkpt>
      <trkpt lat="51.91147610" lon="39.11594150">
        <ele>165.00000</ele>
        <time>2010-01-01T02:10:18Z</time>
      </trkpt>
      <trkpt lat="51.91380570" lon="39.11046980">
        <ele>168.00000</ele>
        <time>2010-01-01T02:13:02Z</time>
      </trkpt>
      <trkpt lat="51.91555280" lon="39.10637140">
        <ele>169.00000</ele>
        <time>2010-01-01T02:15:05Z</time>
      </trkpt>
      <trkpt lat="51.91653230" lon="39.10484790">
        <ele>169.00000</ele>
        <time>2010-01-01T02:16:00Z</time>
      </trkpt>
      <trkpt lat="51.91708810" lon="39.10448310">
        <ele>169.00000</ele>
        <time>2010-01-01T02:16:24Z</time>
      </trkpt>
      <trkpt lat="51.92009240" lon="39.10298100">
        <ele>167.00000</ele>
        <time>2010-01-01T02:18:30Z</time>
      </trkpt>
      <trkpt lat="51.92109820" lon="39.10207980">
        <ele>167.00000</ele>
        <time>2010-01-01T02:19:16Z</time>
      </trkpt>
      <trkpt lat="51.92173340" lon="39.10111420">
        <ele>168.00000</ele>
        <time>2010-01-01T02:19:50Z</time>
      </trkpt>
      <trkpt lat="51.92247450" lon="39.09935470">
        <ele>165.00000</ele>
        <time>2010-01-01T02:20:43Z</time>
      </trkpt>
      <trkpt lat="51.92549160" lon="39.09175870">
        <ele>165.00000</ele>
        <time>2010-01-01T02:24:26Z</time>
      </trkpt>
      <trkpt lat="51.92644440" lon="39.08933400">
        <ele>163.00000</ele>
        <time>2010-01-01T02:25:37Z</time>
      </trkpt>
      <trkpt lat="51.92767500" lon="39.08650150">
        <ele>164.00000</ele>
        <time>2010-01-01T02:27:03Z</time>
      </trkpt>
      <trkpt lat="51.92821750" lon="39.08566470">
        <ele>164.00000</ele>
        <time>2010-01-01T02:27:33Z</time>
      </trkpt>
      <trkpt lat="51.93070500" lon="39.08328290">
        <ele>161.00000</ele>
        <time>2010-01-01T02:29:28Z</time>
      </trkpt>
      <trkpt lat="51.93190900" lon="39.08197400">
        <ele>164.00000</ele>
        <time>2010-01-01T02:30:26Z</time>
      </trkpt>
      <trkpt lat="51.93279550" lon="39.08045050">
        <ele>163.00000</ele>
        <time>2010-01-01T02:31:18Z</time>
      </trkpt>
      <trkpt lat="51.93407880" lon="39.07746790">
        <ele>161.00000</ele>
        <time>2010-01-01T02:32:48Z</time>
      </trkpt>
      <trkpt lat="51.93529600" lon="39.07414190">
        <ele>158.00000</ele>
        <time>2010-01-01T02:34:23Z</time>
      </trkpt>
      <trkpt lat="51.93671150" lon="39.07027950">
        <ele>155.00000</ele>
        <time>2010-01-01T02:36:14Z</time>
      </trkpt>
      <trkpt lat="51.93844450" lon="39.06508680">
        <ele>143.00000</ele>
        <time>2010-01-01T02:38:40Z</time>
      </trkpt>
      <trkpt lat="51.93903980" lon="39.06311270">
        <ele>130.00000</ele>
        <time>2010-01-01T02:39:34Z</time>
      </trkpt>
      <trkpt lat="51.93947640" lon="39.06133170">
        <ele>122.00000</ele>
        <time>2010-01-01T02:40:21Z</time>
      </trkpt>
      <trkpt lat="51.94016420" lon="39.05867090">
        <ele>127.00000</ele>
        <time>2010-01-01T02:41:33Z</time>
      </trkpt>
      <trkpt lat="51.94023040" lon="39.05770540">
        <ele>130.00000</ele>
        <time>2010-01-01T02:41:57Z</time>
      </trkpt>
      <trkpt lat="51.94021720" lon="39.05575270">
        <ele>137.00000</ele>
        <time>2010-01-01T02:42:45Z</time>
      </trkpt>
      <trkpt lat="51.94013780" lon="39.05174010">
        <ele>143.00000</ele>
        <time>2010-01-01T02:44:24Z</time>
      </trkpt>
      <trkpt lat="51.93999230" lon="39.05013080">
        <ele>149.00000</ele>
        <time>2010-01-01T02:45:04Z</time>
      </trkpt>
      <trkpt lat="51.93960860" lon="39.04238460">
        <ele>163.00000</ele>
        <time>2010-01-01T02:48:16Z</time>
      </trkpt>
      <trkpt lat="51.93967480" lon="39.03699870">
        <ele>167.00000</ele>
        <time>2010-01-01T02:50:29Z</time>
      </trkpt>
      <trkpt lat="51.94017750" lon="39.03184890">
        <ele>168.00000</ele>
        <time>2010-01-01T02:52:37Z</time>
      </trkpt>
      <trkpt lat="51.94071980" lon="39.02972450">
        <ele>166.00000</ele>
        <time>2010-01-01T02:53:34Z</time>
      </trkpt>
      <trkpt lat="51.94164580" lon="39.02515410">
        <ele>167.00000</ele>
        <time>2010-01-01T02:55:33Z</time>
      </trkpt>
      <trkpt lat="51.94254530" lon="39.02051920">
        <ele>166.00000</ele>
        <time>2010-01-01T02:57:33Z</time>
      </trkpt>
      <trkpt lat="51.94325960" lon="39.01700010">
        <ele>168.00000</ele>
        <time>2010-01-01T02:59:04Z</time>
      </trkpt>
      <trkpt lat="51.94368280" lon="39.01335230">
        <ele>169.00000</ele>
        <time>2010-01-01T03:00:36Z</time>
      </trkpt>
      <trkpt lat="51.94302150" lon="39.00575630">
        <ele>168.00000</ele>
        <time>2010-01-01T03:03:45Z</time>
      </trkpt>
      <trkpt lat="51.94253200" lon="39.00180810">
        <ele>164.00000</ele>
        <time>2010-01-01T03:05:24Z</time>
      </trkpt>
      <trkpt lat="51.94213520" lon="38.99901860">
        <ele>166.00000</ele>
        <time>2010-01-01T03:06:35Z</time>
      </trkpt>
      <trkpt lat="51.94188390" lon="38.99689430">
        <ele>168.00000</ele>
        <time>2010-01-01T03:07:28Z</time>
      </trkpt>
      <trkpt lat="51.94101080" lon="38.98985620">
        <ele>172.00000</ele>
        <time>2010-01-01T03:10:26Z</time>
      </trkpt>
      <trkpt lat="51.94033620" lon="38.98715250">
        <ele>175.00000</ele>
        <time>2010-01-01T03:11:38Z</time>
      </trkpt>
      <trkpt lat="51.93970120" lon="38.98537150">
        <ele>177.00000</ele>
        <time>2010-01-01T03:12:28Z</time>
      </trkpt>
      <trkpt lat="51.93878850" lon="38.98361200">
        <ele>178.00000</ele>
        <time>2010-01-01T03:13:25Z</time>
      </trkpt>
      <trkpt lat="51.93751190" lon="38.98091910">
        <ele>179.00000</ele>
        <time>2010-01-01T03:14:49Z</time>
      </trkpt>
      <trkpt lat="51.93722080" lon="38.97998570">
        <ele>179.00000</ele>
        <time>2010-01-01T03:15:15Z</time>
      </trkpt>
      <trkpt lat="51.93690330" lon="38.97852650">
        <ele>181.00000</ele>
        <time>2010-01-01T03:15:53Z</time>
      </trkpt>
      <trkpt lat="51.93674460" lon="38.97749660">
        <ele>180.00000</ele>
        <time>2010-01-01T03:16:19Z</time>
      </trkpt>
      <trkpt lat="51.93662550" lon="38.97544740">
        <ele>180.00000</ele>
        <time>2010-01-01T03:17:10Z</time>
      </trkpt>
      <trkpt lat="51.93648660" lon="38.97112360">
        <ele>182.00000</ele>
        <time>2010-01-01T03:18:57Z</time>
      </trkpt>
      <trkpt lat="51.93634110" lon="38.96553390">
        <ele>185.00000</ele>
        <time>2010-01-01T03:21:15Z</time>
      </trkpt>
      <trkpt lat="51.93646680" lon="38.96079180">
        <ele>183.00000</ele>
        <time>2010-01-01T03:23:12Z</time>
      </trkpt>
      <trkpt lat="51.93664540" lon="38.95610330">
        <ele>186.00000</ele>
        <time>2010-01-01T03:25:08Z</time>
      </trkpt>
      <trkpt lat="51.93691660" lon="38.94988050">
        <ele>189.00000</ele>
        <time>2010-01-01T03:27:42Z</time>
      </trkpt>
      <trkpt lat="51.93703560" lon="38.94683360">
        <ele>188.00000</ele>
        <time>2010-01-01T03:28:57Z</time>
      </trkpt>
      <trkpt lat="51.93719440" lon="38.94243470">
        <ele>185.00000</ele>
        <time>2010-01-01T03:30:46Z</time>
      </trkpt>
      <trkpt lat="51.93737300" lon="38.94083610">
        <ele>186.00000</ele>
        <time>2010-01-01T03:31:26Z</time>
      </trkpt>
      <trkpt lat="51.93823950" lon="38.93779990">
        <ele>185.00000</ele>
        <time>2010-01-01T03:32:49Z</time>
      </trkpt>
      <trkpt lat="51.93887450" lon="38.93666260">
        <ele>186.00000</ele>
        <time>2010-01-01T03:33:27Z</time>
      </trkpt>
      <trkpt lat="51.93959540" lon="38.93537520">
        <ele>188.00000</ele>
        <time>2010-01-01T03:34:09Z</time>
      </trkpt>
      <trkpt lat="51.94113650" lon="38.93341180">
        <ele>188.00000</ele>
        <time>2010-01-01T03:35:28Z</time>
      </trkpt>
      <trkpt lat="51.94275030" lon="38.93137330">
        <ele>187.00000</ele>
        <time>2010-01-01T03:36:50Z</time>
      </trkpt>
      <trkpt lat="51.94306110" lon="38.93101930">
        <ele>188.00000</ele>
        <time>2010-01-01T03:37:05Z</time>
      </trkpt>
      <trkpt lat="51.94638110" lon="38.92566560">
        <ele>189.00000</ele>
        <time>2010-01-01T03:40:12Z</time>
      </trkpt>
      <trkpt lat="51.94878830" lon="38.92163150">
        <ele>190.00000</ele>
        <time>2010-01-01T03:42:31Z</time>
      </trkpt>
      <trkpt lat="51.95114240" lon="38.91772620">
        <ele>194.00000</ele>
        <time>2010-01-01T03:44:46Z</time>
      </trkpt>
      <trkpt lat="51.95455430" lon="38.91209360">
        <ele>198.00000</ele>
        <time>2010-01-01T03:48:01Z</time>
      </trkpt>
      <trkpt lat="51.95869330" lon="38.90505550">
        <ele>198.00000</ele>
        <time>2010-01-01T03:52:00Z</time>
      </trkpt>
      <trkpt lat="51.96285830" lon="38.89797440">
        <ele>204.00000</ele>
        <time>2010-01-01T03:56:02Z</time>
      </trkpt>
      <trkpt lat="51.96556860" lon="38.89336100">
        <ele>202.00000</ele>
        <time>2010-01-01T03:58:39Z</time>
      </trkpt>
      <trkpt lat="51.96775000" lon="38.88986340">
        <ele>197.00000</ele>
        <time>2010-01-01T04:00:42Z</time>
      </trkpt>
      <trkpt lat="51.97051290" lon="38.88544320">
        <ele>196.00000</ele>
        <time>2010-01-01T04:03:17Z</time>
      </trkpt>
      <trkpt lat="51.97361940" lon="38.88924120">
        <ele>192.00000</ele>
        <time>2010-01-01T04:05:53Z</time>
      </trkpt>
      <trkpt lat="51.97754510" lon="38.89385460">
        <ele>189.00000</ele>
        <time>2010-01-01T04:09:07Z</time>
      </trkpt>
      <trkpt lat="51.98032060" lon="38.89688010">
        <ele>189.00000</ele>
        <time>2010-01-01T04:11:21Z</time>
      </trkpt>
      <trkpt lat="51.98387570" lon="38.90074250">
        <ele>188.00000</ele>
        <time>2010-01-01T04:14:12Z</time>
      </trkpt>
      <trkpt lat="51.98847450" lon="38.90578500">
        <ele>187.00000</ele>
        <time>2010-01-01T04:17:54Z</time>
      </trkpt>
      <trkpt lat="51.99180430" lon="38.90945430">
        <ele>188.00000</ele>
        <time>2010-01-01T04:20:35Z</time>
      </trkpt>
      <trkpt lat="51.99510740" lon="38.91316650">
        <ele>186.00000</ele>
        <time>2010-01-01T04:23:16Z</time>
      </trkpt>
      <trkpt lat="51.99736660" lon="38.91563410">
        <ele>180.00000</ele>
        <time>2010-01-01T04:25:05Z</time>
      </trkpt>
      <trkpt lat="52.00138270" lon="38.92009730">
        <ele>172.00000</ele>
        <time>2010-01-01T04:28:20Z</time>
      </trkpt>
      <trkpt lat="52.00479090" lon="38.92395970">
        <ele>158.00000</ele>
        <time>2010-01-01T04:31:06Z</time>
      </trkpt>
      <trkpt lat="52.00574190" lon="38.92473220">
        <ele>152.00000</ele>
        <time>2010-01-01T04:31:49Z</time>
      </trkpt>
      <trkpt lat="52.00781570" lon="38.92546170">
        <ele>130.00000</ele>
        <time>2010-01-01T04:33:14Z</time>
      </trkpt>
      <trkpt lat="52.01045730" lon="38.92739290">
        <ele>127.00000</ele>
        <time>2010-01-01T04:35:10Z</time>
      </trkpt>
      <trkpt lat="52.01231950" lon="38.92895930">
        <ele>130.00000</ele>
        <time>2010-01-01T04:36:34Z</time>
      </trkpt>
      <trkpt lat="52.01360060" lon="38.93061160">
        <ele>141.00000</ele>
        <time>2010-01-01T04:37:39Z</time>
      </trkpt>
      <trkpt lat="52.01399680" lon="38.93121240">
        <ele>145.00000</ele>
        <time>2010-01-01T04:38:01Z</time>
      </trkpt>
      <trkpt lat="52.01412880" lon="38.93187760">
        <ele>148.00000</ele>
        <time>2010-01-01T04:38:18Z</time>
      </trkpt>
      <trkpt lat="52.01683610" lon="38.93016090">
        <ele>154.00000</ele>
        <time>2010-01-01T04:40:14Z</time>
      </trkpt>
      <trkpt lat="52.01850000" lon="38.92775770">
        <ele>158.00000</ele>
        <time>2010-01-01T04:41:43Z</time>
      </trkpt>
      <trkpt lat="52.02000530" lon="38.92511840">
        <ele>163.00000</ele>
        <time>2010-01-01T04:43:12Z</time>
      </trkpt>
      <trkpt lat="52.01992610" lon="38.92402410">
        <ele>163.00000</ele>
        <time>2010-01-01T04:43:39Z</time>
      </trkpt>
      <trkpt lat="52.01922620" lon="38.92106290">
        <ele>160.00000</ele>
        <time>2010-01-01T04:44:57Z</time>
      </trkpt>
      <trkpt lat="52.01922620" lon="38.92033330">
        <ele>158.00000</ele>
        <time>2010-01-01T04:45:15Z</time>
      </trkpt>
      <trkpt lat="52.02172190" lon="38.90580650">
        <ele>173.00000</ele>
        <time>2010-01-01T04:51:27Z</time>
      </trkpt>
      <trkpt lat="52.02543210" lon="38.90634290">
        <ele>176.00000</ele>
        <time>2010-01-01T04:53:56Z</time>
      </trkpt>
      <trkpt lat="52.02680530" lon="38.90694370">
        <ele>172.00000</ele>
        <time>2010-01-01T04:54:53Z</time>
      </trkpt>
      <trkpt lat="52.02735980" lon="38.90198700">
        <ele>177.00000</ele>
        <time>2010-01-01T04:56:57Z</time>
      </trkpt>
      <trkpt lat="52.02825750" lon="38.89554970">
        <ele>183.00000</ele>
        <time>2010-01-01T04:59:39Z</time>
      </trkpt>
      <trkpt lat="52.03102990" lon="38.89640800">
        <ele>178.00000</ele>
        <time>2010-01-01T05:01:32Z</time>
      </trkpt>
      <trkpt lat="52.03419820" lon="38.89782420">
        <ele>167.00000</ele>
        <time>2010-01-01T05:03:44Z</time>
      </trkpt>
      <trkpt lat="52.03599340" lon="38.89692300">
        <ele>154.00000</ele>
        <time>2010-01-01T05:04:59Z</time>
      </trkpt>
      <trkpt lat="52.03823740" lon="38.89602180">
        <ele>137.00000</ele>
        <time>2010-01-01T05:06:32Z</time>
      </trkpt>
      <trkpt lat="52.03873890" lon="38.89460560">
        <ele>136.00000</ele>
        <time>2010-01-01T05:07:12Z</time>
      </trkpt>
      <trkpt lat="52.03976850" lon="38.89413350">
        <ele>140.00000</ele>
        <time>2010-01-01T05:07:55Z</time>
      </trkpt>
      <trkpt lat="52.04235540" lon="38.89443390">
        <ele>160.00000</ele>
        <time>2010-01-01T05:09:39Z</time>
      </trkpt>
      <trkpt lat="52.04660500" lon="38.89499180">
        <ele>179.00000</ele>
        <time>2010-01-01T05:12:29Z</time>
      </trkpt>
      <trkpt lat="52.05072220" lon="38.89554970">
        <ele>187.00000</ele>
        <time>2010-01-01T05:15:15Z</time>
      </trkpt>
      <trkpt lat="52.05512940" lon="38.89606470">
        <ele>185.00000</ele>
        <time>2010-01-01T05:18:12Z</time>
      </trkpt>
      <trkpt lat="52.06061790" lon="38.89743800">
        <ele>188.00000</ele>
        <time>2010-01-01T05:21:54Z</time>
      </trkpt>
      <trkpt lat="52.06436450" lon="38.89778130">
        <ele>192.00000</ele>
        <time>2010-01-01T05:24:24Z</time>
      </trkpt>
      <trkpt lat="52.06900770" lon="38.89855380">
        <ele>195.00000</ele>
        <time>2010-01-01T05:27:31Z</time>
      </trkpt>
      <trkpt lat="52.07291190" lon="38.89889710">
        <ele>191.00000</ele>
        <time>2010-01-01T05:30:07Z</time>
      </trkpt>
      <trkpt lat="52.07502210" lon="38.89949790">
        <ele>192.00000</ele>
        <time>2010-01-01T05:31:33Z</time>
      </trkpt>
      <trkpt lat="52.07771250" lon="38.89898300">
        <ele>192.00000</ele>
        <time>2010-01-01T05:33:22Z</time>
      </trkpt>
      <trkpt lat="52.08029720" lon="38.89898300">
        <ele>197.00000</ele>
        <time>2010-01-01T05:35:05Z</time>
      </trkpt>
      <trkpt lat="52.08536070" lon="38.89932630">
        <ele>196.00000</ele>
        <time>2010-01-01T05:38:28Z</time>
      </trkpt>
      <trkpt lat="52.08783950" lon="38.89958380">
        <ele>197.00000</ele>
        <time>2010-01-01T05:40:07Z</time>
      </trkpt>
      <trkpt lat="52.08947440" lon="38.89554970">
        <ele>200.00000</ele>
        <time>2010-01-01T05:42:06Z</time>
      </trkpt>
      <trkpt lat="52.09179470" lon="38.88962740">
        <ele>202.00000</ele>
        <time>2010-01-01T05:44:59Z</time>
      </trkpt>
      <trkpt lat="52.09527500" lon="38.88104430">
        <ele>203.00000</ele>
        <time>2010-01-01T05:49:12Z</time>
      </trkpt>
      <trkpt lat="52.09643510" lon="38.87778280">
        <ele>204.00000</ele>
        <time>2010-01-01T05:50:45Z</time>
      </trkpt>
      <trkpt lat="52.09896600" lon="38.87486450">
        <ele>205.00000</ele>
        <time>2010-01-01T05:52:49Z</time>
      </trkpt>
      <trkpt lat="52.10418550" lon="38.86379240">
        <ele>206.00000</ele>
        <time>2010-01-01T05:58:32Z</time>
      </trkpt>
      <trkpt lat="52.11330510" lon="38.83765690">
        <ele>213.00000</ele>
        <time>2010-01-01T06:10:51Z</time>
      </trkpt>
      <trkpt lat="52.11388490" lon="38.83469580">
        <ele>214.00000</ele>
        <time>2010-01-01T06:12:07Z</time>
      </trkpt>
      <trkpt lat="52.11414840" lon="38.83194920">
        <ele>213.00000</ele>
        <time>2010-01-01T06:13:16Z</time>
      </trkpt>
      <trkpt lat="52.11538700" lon="38.81062030">
        <ele>198.00000</ele>
        <time>2010-01-01T06:22:02Z</time>
      </trkpt>
      <trkpt lat="52.11588770" lon="38.80637160">
        <ele>192.00000</ele>
        <time>2010-01-01T06:23:49Z</time>
      </trkpt>
      <trkpt lat="52.11881280" lon="38.79087920">
        <ele>164.00000</ele>
        <time>2010-01-01T06:30:27Z</time>
      </trkpt>
      <trkpt lat="52.12397730" lon="38.76397130">
        <ele>149.00000</ele>
        <time>2010-01-01T06:42:00Z</time>
      </trkpt>
      <trkpt lat="52.12463600" lon="38.76062390">
        <ele>145.00000</ele>
        <time>2010-01-01T06:43:26Z</time>
      </trkpt>
      <trkpt lat="52.12850900" lon="38.74092570">
        <ele>178.00000</ele>
        <time>2010-01-01T06:51:55Z</time>
      </trkpt>
      <trkpt lat="52.12861440" lon="38.73766420">
        <ele>182.00000</ele>
        <time>2010-01-01T06:53:15Z</time>
      </trkpt>
      <trkpt lat="52.13022140" lon="38.71328830">
        <ele>195.00000</ele>
        <time>2010-01-01T07:03:17Z</time>
      </trkpt>
      <trkpt lat="52.13145960" lon="38.69393340">
        <ele>201.00000</ele>
        <time>2010-01-01T07:11:16Z</time>
      </trkpt>
      <trkpt lat="52.13161760" lon="38.69187350">
        <ele>200.00000</ele>
        <time>2010-01-01T07:12:07Z</time>
      </trkpt>
      <trkpt lat="52.13169670" lon="38.67646690">
        <ele>210.00000</ele>
        <time>2010-01-01T07:18:25Z</time>
      </trkpt>
      <trkpt lat="52.13151230" lon="38.67054460">
        <ele>215.00000</ele>
        <time>2010-01-01T07:20:51Z</time>
      </trkpt>
      <trkpt lat="52.13211820" lon="38.66745470">
        <ele>217.00000</ele>
        <time>2010-01-01T07:22:11Z</time>
      </trkpt>
      <trkpt lat="52.13304020" lon="38.66397850">
        <ele>219.00000</ele>
        <time>2010-01-01T07:23:44Z</time>
      </trkpt>
      <trkpt lat="52.12864070" lon="38.65114680">
        <ele>226.00000</ele>
        <time>2010-01-01T07:29:45Z</time>
      </trkpt>
      <trkpt lat="52.12792940" lon="38.64870070">
        <ele>227.00000</ele>
        <time>2010-01-01T07:30:51Z</time>
      </trkpt>
      <trkpt lat="52.12800840" lon="38.64543910">
        <ele>226.00000</ele>
        <time>2010-01-01T07:32:11Z</time>
      </trkpt>
      <trkpt lat="52.12840360" lon="38.64239210">
        <ele>221.00000</ele>
        <time>2010-01-01T07:33:28Z</time>
      </trkpt>
      <trkpt lat="52.12911490" lon="38.64007470">
        <ele>227.00000</ele>
        <time>2010-01-01T07:34:32Z</time>
      </trkpt>
      <trkpt lat="52.12961550" lon="38.63780020">
        <ele>228.00000</ele>
        <time>2010-01-01T07:35:31Z</time>
      </trkpt>
      <trkpt lat="52.13059020" lon="38.63170620">
        <ele>227.00000</ele>
        <time>2010-01-01T07:38:06Z</time>
      </trkpt>
      <trkpt lat="52.13259230" lon="38.62565510">
        <ele>230.00000</ele>
        <time>2010-01-01T07:40:55Z</time>
      </trkpt>
      <trkpt lat="52.13441000" lon="38.62290850">
        <ele>226.00000</ele>
        <time>2010-01-01T07:42:34Z</time>
      </trkpt>
      <trkpt lat="52.13625390" lon="38.61986160">
        <ele>229.00000</ele>
        <time>2010-01-01T07:44:19Z</time>
      </trkpt>
      <trkpt lat="52.13678070" lon="38.61861700">
        <ele>231.00000</ele>
        <time>2010-01-01T07:44:56Z</time>
      </trkpt>
      <trkpt lat="52.13707040" lon="38.61595630">
        <ele>229.00000</ele>
        <time>2010-01-01T07:46:03Z</time>
      </trkpt>
      <trkpt lat="52.13691240" lon="38.61333840">
        <ele>229.00000</ele>
        <time>2010-01-01T07:47:07Z</time>
      </trkpt>
      <trkpt lat="52.13646460" lon="38.61157890">
        <ele>228.00000</ele>
        <time>2010-01-01T07:47:54Z</time>
      </trkpt>
      <trkpt lat="52.13562170" lon="38.60969060">
        <ele>223.00000</ele>
        <time>2010-01-01T07:48:51Z</time>
      </trkpt>
      <trkpt lat="52.13483140" lon="38.60698690">
        <ele>223.00000</ele>
        <time>2010-01-01T07:50:05Z</time>
      </trkpt>
      <trkpt lat="52.13340900" lon="38.60394000">
        <ele>221.00000</ele>
        <time>2010-01-01T07:51:39Z</time>
      </trkpt>
      <trkpt lat="52.13122250" lon="38.60106460">
        <ele>217.00000</ele>
        <time>2010-01-01T07:53:32Z</time>
      </trkpt>
      <trkpt lat="52.12945740" lon="38.59720230">
        <ele>206.00000</ele>
        <time>2010-01-01T07:55:30Z</time>
      </trkpt>
      <trkpt lat="52.12713900" lon="38.59170910">
        <ele>177.00000</ele>
        <time>2010-01-01T07:58:14Z</time>
      </trkpt>
      <trkpt lat="52.12460970" lon="38.58608720">
        <ele>198.00000</ele>
        <time>2010-01-01T08:01:05Z</time>
      </trkpt>
      <trkpt lat="52.12284440" lon="38.58140940">
        <ele>211.00000</ele>
        <time>2010-01-01T08:03:20Z</time>
      </trkpt>
      <trkpt lat="52.12258090" lon="38.57943530">
        <ele>213.00000</ele>
        <time>2010-01-01T08:04:10Z</time>
      </trkpt>
      <trkpt lat="52.12268630" lon="38.57728950">
        <ele>214.00000</ele>
        <time>2010-01-01T08:05:03Z</time>
      </trkpt>
      <trkpt lat="52.12294980" lon="38.57432840">
        <ele>208.00000</ele>
        <time>2010-01-01T08:06:16Z</time>
      </trkpt>
      <trkpt lat="52.12437260" lon="38.56252670">
        <ele>182.00000</ele>
        <time>2010-01-01T08:11:12Z</time>
      </trkpt>
      <trkpt lat="52.12553190" lon="38.55269900">
        <ele>200.00000</ele>
        <time>2010-01-01T08:15:18Z</time>
      </trkpt>
      <trkpt lat="52.12655940" lon="38.54368680">
        <ele>213.00000</ele>
        <time>2010-01-01T08:19:03Z</time>
      </trkpt>
      <trkpt lat="52.12732340" lon="38.53720660">
        <ele>214.00000</ele>
        <time>2010-01-01T08:21:45Z</time>
      </trkpt>
      <trkpt lat="52.12748150" lon="38.52935310">
        <ele>221.00000</ele>
        <time>2010-01-01T08:24:58Z</time>
      </trkpt>
      <trkpt lat="52.12729710" lon="38.52802270">
        <ele>224.00000</ele>
        <time>2010-01-01T08:25:32Z</time>
      </trkpt>
      <trkpt lat="52.12671750" lon="38.52351660">
        <ele>212.00000</ele>
        <time>2010-01-01T08:27:25Z</time>
      </trkpt>
      <trkpt lat="52.12576900" lon="38.51901050">
        <ele>186.00000</ele>
        <time>2010-01-01T08:29:22Z</time>
      </trkpt>
      <trkpt lat="52.12400370" lon="38.50982660">
        <ele>189.00000</ele>
        <time>2010-01-01T08:33:18Z</time>
      </trkpt>
      <trkpt lat="52.12150060" lon="38.49712370">
        <ele>208.00000</ele>
        <time>2010-01-01T08:38:46Z</time>
      </trkpt>
      <trkpt lat="52.11933980" lon="38.48665230">
        <ele>216.00000</ele>
        <time>2010-01-01T08:43:18Z</time>
      </trkpt>
      <trkpt lat="52.11823310" lon="38.48098750">
        <ele>221.00000</ele>
        <time>2010-01-01T08:45:44Z</time>
      </trkpt>
      <trkpt lat="52.11815400" lon="38.47515100">
        <ele>218.00000</ele>
        <time>2010-01-01T08:48:07Z</time>
      </trkpt>
      <trkpt lat="52.11789050" lon="38.46107480">
        <ele>217.00000</ele>
        <time>2010-01-01T08:53:54Z</time>
      </trkpt>
      <trkpt lat="52.11731080" lon="38.45952980">
        <ele>212.00000</ele>
        <time>2010-01-01T08:54:38Z</time>
      </trkpt>
      <trkpt lat="52.11665200" lon="38.45721240">
        <ele>209.00000</ele>
        <time>2010-01-01T08:55:41Z</time>
      </trkpt>
      <trkpt lat="52.11633570" lon="38.45141880">
        <ele>219.00000</ele>
        <time>2010-01-01T08:58:04Z</time>
      </trkpt>
      <trkpt lat="52.11551880" lon="38.44064710">
        <ele>230.00000</ele>
        <time>2010-01-01T09:02:31Z</time>
      </trkpt>
      <trkpt lat="52.11543970" lon="38.43648430">
        <ele>230.00000</ele>
        <time>2010-01-01T09:04:13Z</time>
      </trkpt>
      <trkpt lat="52.11562420" lon="38.42905990">
        <ele>231.00000</ele>
        <time>2010-01-01T09:07:16Z</time>
      </trkpt>
      <trkpt lat="52.11446470" lon="38.41893190">
        <ele>231.00000</ele>
        <time>2010-01-01T09:11:29Z</time>
      </trkpt>
      <trkpt lat="52.11438560" lon="38.41193670">
        <ele>228.00000</ele>
        <time>2010-01-01T09:14:21Z</time>
      </trkpt>
      <trkpt lat="52.11435930" lon="38.40142250">
        <ele>223.00000</ele>
        <time>2010-01-01T09:18:39Z</time>
      </trkpt>
      <trkpt lat="52.11409570" lon="38.38017940">
        <ele>213.00000</ele>
        <time>2010-01-01T09:27:22Z</time>
      </trkpt>
      <trkpt lat="52.11383220" lon="38.35726260">
        <ele>205.00000</ele>
        <time>2010-01-01T09:36:45Z</time>
      </trkpt>
      <trkpt lat="52.11372680" lon="38.34760660">
        <ele>203.00000</ele>
        <time>2010-01-01T09:40:42Z</time>
      </trkpt>
      <trkpt lat="52.11377950" lon="38.34254260">
        <ele>197.00000</ele>
        <time>2010-01-01T09:42:47Z</time>
      </trkpt>
      <trkpt lat="52.11388490" lon="38.34069720">
        <ele>196.00000</ele>
        <time>2010-01-01T09:43:33Z</time>
      </trkpt>
      <trkpt lat="52.11567690" lon="38.33292960">
        <ele>181.00000</ele>
        <time>2010-01-01T09:46:56Z</time>
      </trkpt>
      <trkpt lat="52.11831210" lon="38.32224360">
        <ele>202.00000</ele>
        <time>2010-01-01T09:51:40Z</time>
      </trkpt>
      <trkpt lat="52.11970880" lon="38.31748000">
        <ele>209.00000</ele>
        <time>2010-01-01T09:53:49Z</time>
      </trkpt>
      <trkpt lat="52.12084180" lon="38.31400390">
        <ele>212.00000</ele>
        <time>2010-01-01T09:55:26Z</time>
      </trkpt>
      <trkpt lat="52.12366120" lon="38.31044190">
        <ele>217.00000</ele>
        <time>2010-01-01T09:57:49Z</time>
      </trkpt>
      <trkpt lat="52.12956280" lon="38.30507750">
        <ele>222.00000</ele>
        <time>2010-01-01T10:02:19Z</time>
      </trkpt>
      <trkpt lat="52.13285580" lon="38.30203050">
        <ele>223.00000</ele>
        <time>2010-01-01T10:04:51Z</time>
      </trkpt>
      <trkpt lat="52.13332990" lon="38.29868310">
        <ele>224.00000</ele>
        <time>2010-01-01T10:06:15Z</time>
      </trkpt>
      <trkpt lat="52.13435730" lon="38.28791140">
        <ele>229.00000</ele>
        <time>2010-01-01T10:10:43Z</time>
      </trkpt>
      <trkpt lat="52.13446270" lon="38.28640930">
        <ele>230.00000</ele>
        <time>2010-01-01T10:11:20Z</time>
      </trkpt>
      <trkpt lat="52.13441000" lon="38.28563690">
        <ele>229.00000</ele>
        <time>2010-01-01T10:11:39Z</time>
      </trkpt>
      <trkpt lat="52.13417290" lon="38.28529350">
        <ele>228.00000</ele>
        <time>2010-01-01T10:11:52Z</time>
      </trkpt>
      <trkpt lat="52.13369870" lon="38.28550810">
        <ele>227.00000</ele>
        <time>2010-01-01T10:12:12Z</time>
      </trkpt>
      <trkpt lat="52.13319820" lon="38.28555100">
        <ele>230.00000</ele>
        <time>2010-01-01T10:12:32Z</time>
      </trkpt>
      <trkpt lat="52.12634860" lon="38.28434940">
        <ele>220.00000</ele>
        <time>2010-01-01T10:17:08Z</time>
      </trkpt>
      <trkpt lat="52.11654660" lon="38.28263280">
        <ele>216.00000</ele>
        <time>2010-01-01T10:23:42Z</time>
      </trkpt>
      <trkpt lat="52.10415920" lon="38.28048700">
        <ele>214.00000</ele>
        <time>2010-01-01T10:32:01Z</time>
      </trkpt>
      <trkpt lat="52.09474770" lon="38.27881330">
        <ele>212.00000</ele>
        <time>2010-01-01T10:38:20Z</time>
      </trkpt>
      <trkpt lat="52.08623090" lon="38.27722540">
        <ele>204.00000</ele>
        <time>2010-01-01T10:44:03Z</time>
      </trkpt>
      <trkpt lat="52.08438490" lon="38.27538010">
        <ele>201.00000</ele>
        <time>2010-01-01T10:45:30Z</time>
      </trkpt>
      <trkpt lat="52.08119390" lon="38.27078810">
        <ele>198.00000</ele>
        <time>2010-01-01T10:48:20Z</time>
      </trkpt>
      <trkpt lat="52.07824000" lon="38.27379220">
        <ele>193.00000</ele>
        <time>2010-01-01T10:50:40Z</time>
      </trkpt>
      <trkpt lat="52.07491660" lon="38.27576630">
        <ele>173.00000</ele>
        <time>2010-01-01T10:53:01Z</time>
      </trkpt>
      <trkpt lat="52.06911320" lon="38.27911370">
        <ele>169.00000</ele>
        <time>2010-01-01T10:57:08Z</time>
      </trkpt>
      <trkpt lat="52.06636960" lon="38.28151700">
        <ele>178.00000</ele>
        <time>2010-01-01T10:59:13Z</time>
      </trkpt>
      <trkpt lat="52.06552530" lon="38.28065870">
        <ele>181.00000</ele>
        <time>2010-01-01T10:59:53Z</time>
      </trkpt>
      <trkpt lat="52.06309810" lon="38.27379220">
        <ele>181.00000</ele>
        <time>2010-01-01T11:03:07Z</time>
      </trkpt>
      <trkpt lat="52.06146220" lon="38.27173230">
        <ele>181.00000</ele>
        <time>2010-01-01T11:04:30Z</time>
      </trkpt>
      <trkpt lat="52.06045960" lon="38.27259060">
        <ele>183.00000</ele>
        <time>2010-01-01T11:05:16Z</time>
      </trkpt>
      <trkpt lat="52.05565720" lon="38.27808380">
        <ele>183.00000</ele>
        <time>2010-01-01T11:09:11Z</time>
      </trkpt>
      <trkpt lat="52.04742320" lon="38.28477850">
        <ele>171.00000</ele>
        <time>2010-01-01T11:15:19Z</time>
      </trkpt>
      <trkpt lat="52.03454140" lon="38.29379080">
        <ele>166.00000</ele>
        <time>2010-01-01T11:24:41Z</time>
      </trkpt>
      <trkpt lat="52.02609230" lon="38.30065720">
        <ele>170.00000</ele>
        <time>2010-01-01T11:30:59Z</time>
      </trkpt>
      <trkpt lat="52.01600410" lon="38.31215850">
        <ele>178.00000</ele>
        <time>2010-01-01T11:39:12Z</time>
      </trkpt>
      <trkpt lat="52.01452500" lon="38.31138610">
        <ele>175.00000</ele>
        <time>2010-01-01T11:40:14Z</time>
      </trkpt>
      <trkpt lat="52.01304590" lon="38.31035610">
        <ele>173.00000</ele>
        <time>2010-01-01T11:41:19Z</time>
      </trkpt>
      <trkpt lat="52.00977050" lon="38.31112860">
        <ele>161.00000</ele>
        <time>2010-01-01T11:43:31Z</time>
      </trkpt>
      <trkpt lat="52.00792130" lon="38.31027030">
        <ele>167.00000</ele>
        <time>2010-01-01T11:44:48Z</time>
      </trkpt>
      <trkpt lat="52.00496260" lon="38.30863950">
        <ele>169.00000</ele>
        <time>2010-01-01T11:46:53Z</time>
      </trkpt>
      <trkpt lat="51.99999560" lon="38.30675120">
        <ele>172.00000</ele>
        <time>2010-01-01T11:50:17Z</time>
      </trkpt>
      <trkpt lat="51.99703640" lon="38.30786700">
        <ele>173.00000</ele>
        <time>2010-01-01T11:52:19Z</time>
      </trkpt>
      <trkpt lat="51.99418260" lon="38.30821030">
        <ele>181.00000</ele>
        <time>2010-01-01T11:54:14Z</time>
      </trkpt>
      <trkpt lat="51.99217420" lon="38.31275930">
        <ele>178.00000</ele>
        <time>2010-01-01T11:56:32Z</time>
      </trkpt>
      <trkpt lat="51.98789300" lon="38.32117080">
        <ele>184.00000</ele>
        <time>2010-01-01T12:01:01Z</time>
      </trkpt>
      <trkpt lat="51.98556730" lon="38.32563400">
        <ele>182.00000</ele>
        <time>2010-01-01T12:03:25Z</time>
      </trkpt>
      <trkpt lat="51.98382290" lon="38.32838050">
        <ele>182.00000</ele>
        <time>2010-01-01T12:05:02Z</time>
      </trkpt>
      <trkpt lat="51.98255420" lon="38.32958220">
        <ele>181.00000</ele>
        <time>2010-01-01T12:06:01Z</time>
      </trkpt>
      <trkpt lat="51.97969950" lon="38.33061210">
        <ele>183.00000</ele>
        <time>2010-01-01T12:07:58Z</time>
      </trkpt>
      <trkpt lat="51.97636870" lon="38.33155630">
        <ele>179.00000</ele>
        <time>2010-01-01T12:10:13Z</time>
      </trkpt>
      <trkpt lat="51.97383090" lon="38.33241460">
        <ele>174.00000</ele>
        <time>2010-01-01T12:11:57Z</time>
      </trkpt>
      <trkpt lat="51.97250900" lon="38.33224290">
        <ele>174.00000</ele>
        <time>2010-01-01T12:12:50Z</time>
      </trkpt>
      <trkpt lat="51.97155730" lon="38.33215710">
        <ele>180.00000</ele>
        <time>2010-01-01T12:13:28Z</time>
      </trkpt>
      <trkpt lat="51.97229750" lon="38.33945270">
        <ele>171.00000</ele>
        <time>2010-01-01T12:16:30Z</time>
      </trkpt>
      <trkpt lat="51.97256190" lon="38.34434500">
        <ele>177.00000</ele>
        <time>2010-01-01T12:18:32Z</time>
      </trkpt>
      <trkpt lat="51.97287920" lon="38.35232730">
        <ele>183.00000</ele>
        <time>2010-01-01T12:21:49Z</time>
      </trkpt>
      <trkpt lat="51.97309060" lon="38.36769100">
        <ele>200.00000</ele>
        <time>2010-01-01T12:28:08Z</time>
      </trkpt>
      <trkpt lat="51.97314350" lon="38.37181090">
        <ele>202.00000</ele>
        <time>2010-01-01T12:29:49Z</time>
      </trkpt>
      <trkpt lat="51.97224460" lon="38.38485710">
        <ele>205.00000</ele>
        <time>2010-01-01T12:35:13Z</time>
      </trkpt>
      <trkpt lat="51.97155730" lon="38.39695930">
        <ele>204.00000</ele>
        <time>2010-01-01T12:40:13Z</time>
      </trkpt>
      <trkpt lat="51.97108140" lon="38.40485570">
        <ele>200.00000</ele>
        <time>2010-01-01T12:43:28Z</time>
      </trkpt>
      <trkpt lat="51.97023530" lon="38.41094970">
        <ele>203.00000</ele>
        <time>2010-01-01T12:46:03Z</time>
      </trkpt>
      <trkpt lat="51.96891340" lon="38.41438290">
        <ele>197.00000</ele>
        <time>2010-01-01T12:47:42Z</time>
      </trkpt>
      <trkpt lat="51.96775000" lon="38.41635700">
        <ele>194.00000</ele>
        <time>2010-01-01T12:48:50Z</time>
      </trkpt>
      <trkpt lat="51.96547610" lon="38.41927520">
        <ele>187.00000</ele>
        <time>2010-01-01T12:50:46Z</time>
      </trkpt>
      <trkpt lat="51.96394240" lon="38.42296600">
        <ele>195.00000</ele>
        <time>2010-01-01T12:52:36Z</time>
      </trkpt>
      <trkpt lat="51.96293760" lon="38.42760080">
        <ele>206.00000</ele>
        <time>2010-01-01T12:54:37Z</time>
      </trkpt>
      <trkpt lat="51.96277900" lon="38.43214980">
        <ele>207.00000</ele>
        <time>2010-01-01T12:56:29Z</time>
      </trkpt>
      <trkpt lat="51.96272610" lon="38.43489640">
        <ele>210.00000</ele>
        <time>2010-01-01T12:57:37Z</time>
      </trkpt>
      <trkpt lat="51.96119230" lon="38.44176290">
        <ele>214.00000</ele>
        <time>2010-01-01T13:00:37Z</time>
      </trkpt>
      <trkpt lat="51.95537420" lon="38.45377920">
        <ele>224.00000</ele>
        <time>2010-01-01T13:06:54Z</time>
      </trkpt>
      <trkpt lat="51.94659270" lon="38.47480770">
        <ele>234.00000</ele>
        <time>2010-01-01T13:17:21Z</time>
      </trkpt>
      <trkpt lat="51.94257170" lon="38.48802560">
        <ele>233.00000</ele>
        <time>2010-01-01T13:23:24Z</time>
      </trkpt>
      <trkpt lat="51.94204260" lon="38.49042890">
        <ele>234.00000</ele>
        <time>2010-01-01T13:24:27Z</time>
      </trkpt>
      <trkpt lat="51.94183100" lon="38.49557870">
        <ele>235.00000</ele>
        <time>2010-01-01T13:26:35Z</time>
      </trkpt>
      <trkpt lat="51.94701600" lon="38.50742340">
        <ele>238.00000</ele>
        <time>2010-01-01T13:32:33Z</time>
      </trkpt>
      <trkpt lat="51.95040180" lon="38.51531980">
        <ele>231.00000</ele>
        <time>2010-01-01T13:36:31Z</time>
      </trkpt>
      <trkpt lat="51.95696110" lon="38.53317260">
        <ele>233.00000</ele>
        <time>2010-01-01T13:45:03Z</time>
      </trkpt>
      <trkpt lat="51.96055770" lon="38.54793540">
        <ele>231.00000</ele>
        <time>2010-01-01T13:51:35Z</time>
      </trkpt>
      <trkpt lat="51.95294100" lon="38.57196800">
        <ele>246.00000</ele>
        <time>2010-01-01T14:02:42Z</time>
      </trkpt>
      <trkpt lat="51.95272940" lon="38.57917780">
        <ele>251.00000</ele>
        <time>2010-01-01T14:05:40Z</time>
      </trkpt>
      <trkpt lat="51.95040180" lon="38.59634390">
        <ele>237.00000</ele>
        <time>2010-01-01T14:12:53Z</time>
      </trkpt>
      <trkpt lat="51.94976700" lon="38.61076350">
        <ele>201.00000</ele>
        <time>2010-01-01T14:18:50Z</time>
      </trkpt>
      <trkpt lat="51.94638110" lon="38.63136290">
        <ele>241.00000</ele>
        <time>2010-01-01T14:27:36Z</time>
      </trkpt>
      <trkpt lat="51.94257170" lon="38.65161890">
        <ele>241.00000</ele>
        <time>2010-01-01T14:36:19Z</time>
      </trkpt>
      <trkpt lat="51.93601040" lon="38.66432180">
        <ele>243.00000</ele>
        <time>2010-01-01T14:43:08Z</time>
      </trkpt>
      <trkpt lat="51.93092990" lon="38.67324820">
        <ele>236.00000</ele>
        <time>2010-01-01T14:48:07Z</time>
      </trkpt>
      <trkpt lat="51.91695580" lon="38.68148800">
        <ele>231.00000</ele>
        <time>2010-01-01T14:58:03Z</time>
      </trkpt>
      <trkpt lat="51.90763730" lon="38.68629450">
        <ele>224.00000</ele>
        <time>2010-01-01T15:04:34Z</time>
      </trkpt>
      <trkpt lat="51.90022340" lon="38.69247430">
        <ele>221.00000</ele>
        <time>2010-01-01T15:10:08Z</time>
      </trkpt>
      <trkpt lat="51.89598640" lon="38.69968410">
        <ele>219.00000</ele>
        <time>2010-01-01T15:14:14Z</time>
      </trkpt>
      <trkpt lat="51.89577450" lon="38.70689390">
        <ele>212.00000</ele>
        <time>2010-01-01T15:17:12Z</time>
      </trkpt>
      <trkpt lat="51.89577450" lon="38.71891020">
        <ele>193.00000</ele>
        <time>2010-01-01T15:22:09Z</time>
      </trkpt>
      <trkpt lat="51.89513890" lon="38.72955320">
        <ele>168.00000</ele>
        <time>2010-01-01T15:26:33Z</time>
      </trkpt>
      <trkpt lat="51.90022340" lon="38.73367300">
        <ele>178.00000</ele>
        <time>2010-01-01T15:30:21Z</time>
      </trkpt>
      <trkpt lat="51.89746940" lon="38.74019620">
        <ele>171.00000</ele>
        <time>2010-01-01T15:33:36Z</time>
      </trkpt>
      <trkpt lat="51.89323210" lon="38.74706260">
        <ele>197.00000</ele>
        <time>2010-01-01T15:37:36Z</time>
      </trkpt>
      <trkpt lat="51.88899440" lon="38.75461570">
        <ele>204.00000</ele>
        <time>2010-01-01T15:41:48Z</time>
      </trkpt>
      <trkpt lat="51.88242520" lon="38.76251220">
        <ele>183.00000</ele>
        <time>2010-01-01T15:47:15Z</time>
      </trkpt>
      <trkpt lat="51.87564310" lon="38.77109520">
        <ele>186.00000</ele>
        <time>2010-01-01T15:53:00Z</time>
      </trkpt>
      <trkpt lat="51.86928390" lon="38.78551480">
        <ele>211.00000</ele>
        <time>2010-01-01T16:00:18Z</time>
      </trkpt>
      <trkpt lat="51.85020100" lon="38.79753110">
        <ele>212.00000</ele>
        <time>2010-01-01T16:13:57Z</time>
      </trkpt>
      <trkpt lat="51.83598960" lon="38.81778710">
        <ele>210.00000</ele>
        <time>2010-01-01T16:26:35Z</time>
      </trkpt>
      <trkpt lat="51.81583140" lon="38.84868620">
        <ele>200.00000</ele>
        <time>2010-01-01T16:45:07Z</time>
      </trkpt>
      <trkpt lat="51.80309530" lon="38.86722560">
        <ele>191.00000</ele>
        <time>2010-01-01T16:56:33Z</time>
      </trkpt>
      <trkpt lat="51.79417780" lon="38.87683860">
        <ele>180.00000</ele>
        <time>2010-01-01T17:03:42Z</time>
      </trkpt>
      <trkpt lat="51.77187650" lon="38.90052790">
        <ele>182.00000</ele>
        <time>2010-01-01T17:21:30Z</time>
      </trkpt>
      <trkpt lat="51.76305910" lon="38.91082760">
        <ele>182.00000</ele>
        <time>2010-01-01T17:28:46Z</time>
      </trkpt>
      <trkpt lat="51.76125290" lon="38.91426080">
        <ele>187.00000</ele>
        <time>2010-01-01T17:30:37Z</time>
      </trkpt>
      <trkpt lat="51.75774660" lon="38.91838070">
        <ele>186.00000</ele>
        <time>2010-01-01T17:33:31Z</time>
      </trkpt>
      <trkpt lat="51.74361230" lon="38.93795010">
        <ele>176.00000</ele>
        <time>2010-01-01T17:45:56Z</time>
      </trkpt>
      <trkpt lat="51.73638410" lon="38.94773480">
        <ele>172.00000</ele>
        <time>2010-01-01T17:52:14Z</time>
      </trkpt>
      <trkpt lat="51.73202530" lon="38.96455760">
        <ele>165.00000</ele>
        <time>2010-01-01T17:59:46Z</time>
      </trkpt>
      <trkpt lat="51.72979260" lon="38.97657390">
        <ele>157.00000</ele>
        <time>2010-01-01T18:04:57Z</time>
      </trkpt>
      <trkpt lat="51.72809140" lon="38.98601530">
        <ele>157.00000</ele>
        <time>2010-01-01T18:09:01Z</time>
      </trkpt>
      <trkpt lat="51.72575210" lon="38.98979180">
        <ele>153.00000</ele>
        <time>2010-01-01T18:11:13Z</time>
      </trkpt>
      <trkpt lat="51.72277480" lon="38.99408340">
        <ele>146.00000</ele>
        <time>2010-01-01T18:13:53Z</time>
      </trkpt>
      <trkpt lat="51.72330650" lon="38.99923320">
        <ele>136.00000</ele>
        <time>2010-01-01T18:16:02Z</time>
      </trkpt>
      <trkpt lat="51.72479520" lon="39.00609970">
        <ele>135.00000</ele>
        <time>2010-01-01T18:19:03Z</time>
      </trkpt>
      <trkpt lat="51.72596480" lon="39.01451110">
        <ele>112.00000</ele>
        <time>2010-01-01T18:22:36Z</time>
      </trkpt>
      <trkpt lat="51.72713440" lon="39.02103420">
        <ele>122.00000</ele>
        <time>2010-01-01T18:25:25Z</time>
      </trkpt>
      <trkpt lat="51.72702810" lon="39.03030390">
        <ele>163.00000</ele>
        <time>2010-01-01T18:29:15Z</time>
      </trkpt>
      <trkpt lat="51.72503440" lon="39.03476710">
        <ele>163.00000</ele>
        <time>2010-01-01T18:31:31Z</time>
      </trkpt>
      <trkpt lat="51.72551290" lon="39.03566830">
        <ele>164.00000</ele>
        <time>2010-01-01T18:32:01Z</time>
      </trkpt>
      <trkpt lat="51.72572560" lon="39.03678410">
        <ele>163.00000</ele>
        <time>2010-01-01T18:32:29Z</time>
      </trkpt>
      <trkpt lat="51.72593820" lon="39.04073230">
        <ele>157.00000</ele>
        <time>2010-01-01T18:34:08Z</time>
      </trkpt>
      <trkpt lat="51.72625720" lon="39.04377930">
        <ele>148.00000</ele>
        <time>2010-01-01T18:35:24Z</time>
      </trkpt>
      <trkpt lat="51.72670910" lon="39.04656880">
        <ele>134.00000</ele>
        <time>2010-01-01T18:36:36Z</time>
      </trkpt>
      <trkpt lat="51.72684200" lon="39.04974460">
        <ele>113.00000</ele>
        <time>2010-01-01T18:37:55Z</time>
      </trkpt>
      <trkpt lat="51.72646990" lon="39.05201910">
        <ele>100.00000</ele>
        <time>2010-01-01T18:38:53Z</time>
      </trkpt>
      <trkpt lat="51.72556610" lon="39.05545230">
        <ele>98.000000</ele>
        <time>2010-01-01T18:40:26Z</time>
      </trkpt>
      <trkpt lat="51.72474200" lon="39.05858510">
        <ele>99.000000</ele>
        <time>2010-01-01T18:41:50Z</time>
      </trkpt>
      <trkpt lat="51.72322670" lon="39.06360620">
        <ele>93.000000</ele>
        <time>2010-01-01T18:44:09Z</time>
      </trkpt>
      <trkpt lat="51.72224310" lon="39.06665320">
        <ele>98.000000</ele>
        <time>2010-01-01T18:45:34Z</time>
      </trkpt>
      <trkpt lat="51.72133920" lon="39.06888480">
        <ele>98.000000</ele>
        <time>2010-01-01T18:46:40Z</time>
      </trkpt>
      <trkpt lat="51.72006300" lon="39.07115930">
        <ele>96.000000</ele>
        <time>2010-01-01T18:47:56Z</time>
      </trkpt>
      <trkpt lat="51.71862740" lon="39.07279010">
        <ele>97.000000</ele>
        <time>2010-01-01T18:49:06Z</time>
      </trkpt>
      <trkpt lat="51.71692580" lon="39.07424920">
        <ele>95.000000</ele>
        <time>2010-01-01T18:50:23Z</time>
      </trkpt>
      <trkpt lat="51.71506460" lon="39.07480710">
        <ele>94.000000</ele>
        <time>2010-01-01T18:51:39Z</time>
      </trkpt>
      <trkpt lat="51.71296400" lon="39.07467840">
        <ele>102.00000</ele>
        <time>2010-01-01T18:53:03Z</time>
      </trkpt>
      <trkpt lat="51.71107600" lon="39.07424920">
        <ele>106.00000</ele>
        <time>2010-01-01T18:54:20Z</time>
      </trkpt>
      <trkpt lat="51.70929430" lon="39.07369130">
        <ele>106.00000</ele>
        <time>2010-01-01T18:55:32Z</time>
      </trkpt>
      <trkpt lat="51.70825720" lon="39.07377710">
        <ele>106.00000</ele>
        <time>2010-01-01T18:56:14Z</time>
      </trkpt>
      <trkpt lat="51.70687440" lon="39.07480710">
        <ele>107.00000</ele>
        <time>2010-01-01T18:57:15Z</time>
      </trkpt>
      <trkpt lat="51.70493300" lon="39.07562250">
        <ele>110.00000</ele>
        <time>2010-01-01T18:58:35Z</time>
      </trkpt>
      <trkpt lat="51.70339040" lon="39.07656660">
        <ele>113.00000</ele>
        <time>2010-01-01T18:59:41Z</time>
      </trkpt>
      <trkpt lat="51.70160840" lon="39.07768240">
        <ele>117.00000</ele>
        <time>2010-01-01T19:00:58Z</time>
      </trkpt>
      <trkpt lat="51.69940080" lon="39.07987110">
        <ele>128.00000</ele>
        <time>2010-01-01T19:02:41Z</time>
      </trkpt>
      <trkpt lat="51.69831030" lon="39.08175940">
        <ele>132.00000</ele>
        <time>2010-01-01T19:03:45Z</time>
      </trkpt>
      <trkpt lat="51.69647490" lon="39.08665180">
        <ele>135.00000</ele>
        <time>2010-01-01T19:06:07Z</time>
      </trkpt>
      <trkpt lat="51.69463950" lon="39.09120080">
        <ele>144.00000</ele>
        <time>2010-01-01T19:08:22Z</time>
      </trkpt>
      <trkpt lat="51.68955840" lon="39.10347460">
        <ele>153.00000</ele>
        <time>2010-01-01T19:14:28Z</time>
      </trkpt>
      <trkpt lat="51.68500880" lon="39.11557670">
        <ele>149.00000</ele>
        <time>2010-01-01T19:20:19Z</time>
      </trkpt>
      <trkpt lat="51.68452990" lon="39.11669250">
        <ele>144.00000</ele>
        <time>2010-01-01T19:20:53Z</time>
      </trkpt>
      <trkpt lat="51.68373170" lon="39.11922450">
        <ele>143.00000</ele>
        <time>2010-01-01T19:22:04Z</time>
      </trkpt>
      <trkpt lat="51.68277380" lon="39.12201400">
        <ele>143.00000</ele>
        <time>2010-01-01T19:23:23Z</time>
      </trkpt>
      <trkpt lat="51.68208200" lon="39.12377350">
        <ele>138.00000</ele>
        <time>2010-01-01T19:24:14Z</time>
      </trkpt>
      <trkpt lat="51.68147000" lon="39.12587640">
        <ele>133.00000</ele>
        <time>2010-01-01T19:25:12Z</time>
      </trkpt>
      <trkpt lat="51.68043220" lon="39.12853710">
        <ele>124.00000</ele>
        <time>2010-01-01T19:26:30Z</time>
      </trkpt>
      <trkpt lat="51.67950090" lon="39.13175580">
        <ele>121.00000</ele>
        <time>2010-01-01T19:27:58Z</time>
      </trkpt>
      <trkpt lat="51.67542930" lon="39.14334290">
        <ele>149.00000</ele>
        <time>2010-01-01T19:33:29Z</time>
      </trkpt>
      <trkpt lat="51.67234220" lon="39.15458670">
        <ele>149.00000</ele>
        <time>2010-01-01T19:38:34Z</time>
      </trkpt>
      <trkpt lat="51.66912170" lon="39.16625970">
        <ele>151.00000</ele>
        <time>2010-01-01T19:43:51Z</time>
      </trkpt>
      <trkpt lat="51.66688590" lon="39.17316910">
        <ele>153.00000</ele>
        <time>2010-01-01T19:47:05Z</time>
      </trkpt>
      <trkpt lat="51.66614060" lon="39.17398450">
        <ele>154.00000</ele>
        <time>2010-01-01T19:47:41Z</time>
      </trkpt>
      <trkpt lat="51.66544860" lon="39.17655940">
        <ele>158.00000</ele>
        <time>2010-01-01T19:48:51Z</time>
      </trkpt>
      <trkpt lat="51.66502270" lon="39.17793270">
        <ele>157.00000</ele>
        <time>2010-01-01T19:49:29Z</time>
      </trkpt>
      <trkpt lat="51.66441040" lon="39.18033590">
        <ele>161.00000</ele>
        <time>2010-01-01T19:50:33Z</time>
      </trkpt>
      <trkpt lat="51.66353200" lon="39.18291090">
        <ele>162.00000</ele>
        <time>2010-01-01T19:51:46Z</time>
      </trkpt>
      <trkpt lat="51.66313270" lon="39.18428420">
        <ele>159.00000</ele>
        <time>2010-01-01T19:52:24Z</time>
      </trkpt>
      <trkpt lat="51.65996490" lon="39.19342510">
        <ele>163.00000</ele>
        <time>2010-01-01T19:56:44Z</time>
      </trkpt>
      <trkpt lat="51.65956550" lon="39.19278140">
        <ele>163.00000</ele>
        <time>2010-01-01T19:57:06Z</time>
      </trkpt>
      <trkpt lat="51.65912630" lon="39.19314620">
        <ele>158.00000</ele>
        <time>2010-01-01T19:57:26Z</time>
      </trkpt>
    </trkseg>
  </trk>
</gpx>

